Time;durP1;ratioP1;P1;durP2;ratioP2;P2;SDS_P1;SDS_P2;PMS_P1;PMS_P2;Temp;Humidity;BMP_temperature;BMP_pressure;BME280_temperature;BME280_humidity;BME280_pressure;Samples;Min_cycle;Max_cycle;Signal;HPM_P1;HPM_P2
2022/01/31 00:00:58;;;;;;;18.38;5.30;;;4.60;99.90;;;;;;5050692;28;20095;-67
2022/01/31 00:03:24;;;;;;;24.23;6.28;;;4.50;99.90;;;;;;5049434;28;20041;-67
2022/01/31 00:05:49;;;;;;;20.77;5.75;;;4.60;99.90;;;;;;5049510;28;20040;-68
2022/01/31 00:08:21;;;;;;;20.30;6.00;;;4.50;99.90;;;;;;5050164;28;20482;-67
2022/01/31 00:10:47;;;;;;;23.83;5.80;;;4.50;99.90;;;;;;5050602;28;20048;-67
2022/01/31 00:13:19;;;;;;;20.20;5.78;;;4.50;99.90;;;;;;5051053;28;20120;-67
2022/01/31 00:15:52;;;;;;;23.38;5.50;;;4.50;99.90;;;;;;5049398;28;20048;-67
2022/01/31 00:18:18;;;;;;;20.23;6.05;;;4.40;99.90;;;;;;5052116;28;20442;-67
2022/01/31 00:20:44;;;;;;;26.73;6.13;;;4.40;99.90;;;;;;5050548;28;20127;-67
2022/01/31 00:23:09;;;;;;;19.52;6.05;;;4.40;99.90;;;;;;5049740;28;20048;-67
2022/01/31 00:25:35;;;;;;;20.23;5.85;;;4.50;99.90;;;;;;5049995;28;20033;-67
2022/01/31 00:28:01;;;;;;;16.92;4.45;;;4.50;99.90;;;;;;5051558;28;20581;-67
2022/01/31 00:30:26;;;;;;;20.17;4.90;;;4.50;99.90;;;;;;5051644;28;20048;-67
2022/01/31 00:32:52;;;;;;;28.20;6.05;;;4.50;99.90;;;;;;5050562;28;20041;-67
2022/01/31 00:35:17;;;;;;;19.90;4.97;;;4.40;99.90;;;;;;5050038;28;20088;-65
2022/01/31 00:37:43;;;;;;;17.05;5.47;;;4.50;99.90;;;;;;5049822;28;20450;-66
2022/01/31 00:40:10;;;;;;;20.92;4.97;;;4.50;99.90;;;;;;5050623;28;20037;-65
2022/01/31 00:42:36;;;;;;;18.48;4.80;;;4.40;99.90;;;;;;5050843;28;20037;-65
2022/01/31 00:45:13;;;;;;;17.88;4.93;;;4.50;99.90;;;;;;5049162;28;20041;-66
2022/01/31 00:47:42;;;;;;;25.10;6.25;;;4.50;99.90;;;;;;5049501;28;20048;-66
2022/01/31 00:50:10;;;;;;;20.17;5.00;;;4.50;99.90;;;;;;5063645;28;20088;-67
2022/01/31 00:52:39;;;;;;;18.65;6.47;;;4.50;99.90;;;;;;5049985;28;20452;-65
2022/01/31 00:55:06;;;;;;;20.75;5.85;;;4.50;99.90;;;;;;5051163;28;20045;-66
2022/01/31 00:57:31;;;;;;;17.98;5.10;;;4.50;99.90;;;;;;5049114;28;20387;-66
2022/01/31 00:59:57;;;;;;;22.45;5.45;;;4.50;99.90;;;;;;5047601;28;20045;-65
2022/01/31 01:02:24;;;;;;;20.92;5.78;;;4.50;99.90;;;;;;5038772;28;20049;-65
2022/01/31 01:04:51;;;;;;;18.45;5.95;;;4.50;99.90;;;;;;5040609;28;20437;-65
2022/01/31 01:07:19;;;;;;;24.33;6.25;;;4.60;99.90;;;;;;5049156;28;20067;-65
2022/01/31 01:09:45;;;;;;;19.77;6.20;;;4.60;99.90;;;;;;5028015;28;20053;-66
2022/01/31 01:12:13;;;;;;;23.40;6.45;;;4.50;99.90;;;;;;5044749;28;20522;-65
2022/01/31 01:14:39;;;;;;;18.90;6.15;;;4.50;99.90;;;;;;5047340;28;20056;-66
2022/01/31 01:17:04;;;;;;;22.13;7.20;;;4.40;99.90;;;;;;5052781;28;20483;-65
2022/01/31 01:19:30;;;;;;;21.95;7.07;;;4.40;99.90;;;;;;5048150;28;20044;-65
2022/01/31 01:21:55;;;;;;;21.38;7.32;;;4.40;99.90;;;;;;5048524;28;20489;-66
2022/01/31 01:24:21;;;;;;;23.65;6.47;;;4.40;99.90;;;;;;5043909;28;21386;-66
2022/01/31 01:26:48;;;;;;;18.70;7.32;;;4.40;99.90;;;;;;5047514;28;20627;-65
2022/01/31 01:29:14;;;;;;;19.17;6.95;;;4.40;99.90;;;;;;5049024;28;20486;-66
2022/01/31 01:31:39;;;;;;;22.17;7.68;;;4.40;99.90;;;;;;5047310;28;20107;-66
2022/01/31 01:34:05;;;;;;;26.92;9.75;;;4.40;99.90;;;;;;5043825;28;20490;-66
2022/01/31 01:36:32;;;;;;;19.73;7.85;;;4.30;99.90;;;;;;5030179;28;20148;-66
2022/01/31 01:38:58;;;;;;;21.85;9.18;;;4.20;99.90;;;;;;5036626;28;20052;-66
2022/01/31 01:41:23;;;;;;;20.88;8.43;;;4.30;99.90;;;;;;5050739;28;20090;-66
2022/01/31 01:43:49;;;;;;;24.70;10.45;;;4.30;99.90;;;;;;5048316;28;20045;-66
2022/01/31 01:46:15;;;;;;;23.08;9.10;;;4.20;99.90;;;;;;5050320;28;20132;-66
2022/01/31 01:48:40;;;;;;;26.65;11.10;;;4.20;99.90;;;;;;5046975;28;20060;-66
2022/01/31 01:51:06;;;;;;;22.40;10.10;;;4.10;99.90;;;;;;5049185;28;20049;-66
2022/01/31 01:53:32;;;;;;;24.63;10.40;;;4.00;99.90;;;;;;5049459;28;20482;-66
2022/01/31 01:55:58;;;;;;;20.55;9.73;;;4.00;99.90;;;;;;5050406;28;20140;-65
2022/01/31 01:58:28;;;;;;;27.13;11.25;;;4.00;99.90;;;;;;5048054;28;20060;-65
2022/01/31 02:01:01;;;;;;;21.50;11.93;;;4.00;99.90;;;;;;5048573;28;20048;-66
2022/01/31 02:03:29;;;;;;;23.98;11.73;;;3.90;99.90;;;;;;5027860;28;20053;-66
2022/01/31 02:05:56;;;;;;;24.63;12.52;;;3.90;99.90;;;;;;5031731;28;20044;-65
2022/01/31 02:08:24;;;;;;;24.17;11.35;;;3.80;99.90;;;;;;5047877;28;20107;-66
2022/01/31 02:10:50;;;;;;;22.80;12.05;;;3.80;99.90;;;;;;5030906;28;20048;-66
2022/01/31 02:13:16;;;;;;;25.70;11.40;;;3.70;99.90;;;;;;5049245;28;20041;-65
2022/01/31 02:15:45;;;;;;;26.25;12.07;;;3.70;99.90;;;;;;5047929;28;20041;-66
2022/01/31 02:18:11;;;;;;;21.02;11.05;;;3.60;99.90;;;;;;5047309;28;20405;-66
2022/01/31 02:20:38;;;;;;;21.90;11.90;;;3.60;99.90;;;;;;5048539;28;20091;-66
2022/01/31 02:23:07;;;;;;;17.83;11.02;;;3.50;99.90;;;;;;5049184;28;20140;-66
2022/01/31 02:25:33;;;;;;;17.67;9.27;;;3.40;99.90;;;;;;5048646;28;20029;-67
2022/01/31 02:27:59;;;;;;;15.95;9.90;;;3.50;99.90;;;;;;5049209;28;20049;-66
2022/01/31 02:30:25;;;;;;;19.58;9.82;;;3.40;99.90;;;;;;5049184;28;20051;-66
2022/01/31 02:32:50;;;;;;;15.95;10.02;;;3.30;99.90;;;;;;5034094;28;20080;-66
2022/01/31 02:35:16;;;;;;;21.77;11.73;;;3.20;99.90;;;;;;5026331;28;20120;-66
2022/01/31 02:37:42;;;;;;;16.83;9.55;;;3.10;99.90;;;;;;5029067;28;20510;-66
2022/01/31 02:40:08;;;;;;;18.05;10.80;;;3.10;99.90;;;;;;5031220;28;20049;-66
2022/01/31 02:42:34;;;;;;;22.08;12.27;;;3.00;99.90;;;;;;5048562;28;20466;-66
2022/01/31 02:45:00;;;;;;;22.13;12.18;;;2.90;99.90;;;;;;5047581;28;20068;-66
2022/01/31 02:47:29;;;;;;;24.45;13.32;;;3.00;99.90;;;;;;5048072;28;20044;-66
2022/01/31 02:49:59;;;;;;;21.42;12.73;;;2.90;99.90;;;;;;5046311;28;20061;-66
2022/01/31 02:52:27;;;;;;;21.63;12.45;;;2.90;99.90;;;;;;5047897;28;20120;-66
2022/01/31 02:54:53;;;;;;;24.42;13.43;;;3.00;99.90;;;;;;5047167;28;20461;-66
2022/01/31 02:57:19;;;;;;;20.20;12.70;;;3.00;99.90;;;;;;5048839;28;20045;-66
2022/01/31 02:59:44;;;;;;;18.63;11.93;;;3.00;99.90;;;;;;5046764;28;20045;-66
2022/01/31 03:02:10;;;;;;;17.60;11.93;;;3.10;99.90;;;;;;5046372;28;20045;-66
2022/01/31 03:04:35;;;;;;;24.17;13.30;;;3.20;99.90;;;;;;5046460;28;20036;-67
2022/01/31 03:07:01;;;;;;;20.13;11.55;;;3.20;99.90;;;;;;5047087;28;20072;-68
2022/01/31 03:09:27;;;;;;;25.02;10.82;;;3.30;99.90;;;;;;5039223;28;20056;-66
2022/01/31 03:11:52;;;;;;;26.58;15.27;;;2.00;99.90;;;;;;5029253;28;20041;-67
2022/01/31 03:14:19;;;;;;;23.38;14.15;;;3.40;99.90;;;;;;5028299;28;20088;-66
2022/01/31 03:16:46;;;;;;;24.58;13.13;;;3.40;99.90;;;;;;5017895;28;20033;-66
2022/01/31 03:19:13;;;;;;;22.00;13.48;;;3.40;99.90;;;;;;5045627;28;20045;-65
2022/01/31 03:21:38;;;;;;;18.30;9.80;;;3.40;99.90;;;;;;5047304;28;20053;-66
2022/01/31 03:24:05;;;;;;;15.35;9.07;;;3.50;99.90;;;;;;5047311;28;20048;-66
2022/01/31 03:26:31;;;;;;;18.42;11.13;;;3.60;99.90;;;;;;5028011;28;20094;-66
2022/01/31 03:28:57;;;;;;;16.05;9.25;;;3.70;99.90;;;;;;5027475;28;20041;-66
2022/01/31 03:31:24;;;;;;;18.77;10.73;;;3.70;99.90;;;;;;5042243;28;20052;-66
2022/01/31 03:33:51;;;;;;;16.88;10.27;;;3.70;99.90;;;;;;5047488;28;20064;-66
2022/01/31 03:36:17;;;;;;;22.02;11.43;;;3.80;99.90;;;;;;5048304;28;20132;-66
2022/01/31 03:38:43;;;;;;;22.85;9.95;;;3.80;99.90;;;;;;5047395;28;20041;-65
2022/01/31 03:41:17;;;;;;;23.90;9.65;;;3.90;99.90;;;;;;5047792;28;20045;-65
2022/01/31 03:43:43;;;;;;;19.88;8.95;;;4.00;99.90;;;;;;5046431;28;20045;-65
2022/01/31 03:46:09;;;;;;;20.25;8.45;;;4.00;99.90;;;;;;5048261;28;20398;-65
2022/01/31 03:48:35;;;;;;;19.27;7.53;;;4.10;99.90;;;;;;5044247;28;20041;-65
2022/01/31 03:51:03;;;;;;;23.67;7.65;;;4.20;99.90;;;;;;5042840;28;20049;-65
2022/01/31 03:53:29;;;;;;;23.60;6.57;;;4.30;99.90;;;;;;5045896;28;20506;-67
2022/01/31 03:55:55;;;;;;;22.55;5.32;;;4.40;99.90;;;;;;5047749;28;20576;-67
2022/01/31 03:58:21;;;;;;;32.75;5.57;;;4.50;99.90;;;;;;5044809;28;20081;-65
2022/01/31 04:00:47;;;;;;;18.65;4.40;;;4.60;99.90;;;;;;5047019;28;20085;-67
2022/01/31 04:03:13;;;;;;;37.40;5.55;;;4.80;99.90;;;;;;5046471;28;20045;-67
2022/01/31 04:05:39;;;;;;;23.35;5.15;;;5.20;99.90;;;;;;5046866;28;20067;-67
2022/01/31 04:08:08;;;;;;;29.98;5.47;;;5.00;99.90;;;;;;5047712;28;20439;-67
2022/01/31 04:10:36;;;;;;;27.17;4.57;;;5.10;99.90;;;;;;5047817;28;20049;-67
2022/01/31 04:13:03;;;;;;;24.52;4.68;;;5.10;99.90;;;;;;5047810;28;20043;-66
2022/01/31 04:15:29;;;;;;;24.92;4.38;;;5.10;99.90;;;;;;5045898;28;20061;-66
2022/01/31 04:17:54;;;;;;;25.90;4.60;;;5.20;99.90;;;;;;5046841;28;20042;-66
2022/01/31 04:20:20;;;;;;;15.70;3.22;;;5.20;99.90;;;;;;5046480;28;20107;-65
2022/01/31 04:25:29;;;;;;;16.17;3.88;;;5.30;99.90;;;;;;5047014;28;20049;-66
2022/01/31 04:28:02;;;;;;;13.50;2.90;;;5.20;99.90;;;;;;5045942;28;20505;-66
2022/01/31 04:30:35;;;;;;;15.77;2.70;;;5.20;99.90;;;;;;5048202;28;20083;-66
2022/01/31 04:33:01;;;;;;;18.08;2.67;;;5.20;99.90;;;;;;5051031;28;20045;-65
2022/01/31 04:35:27;;;;;;;12.55;2.55;;;5.30;99.90;;;;;;5047537;28;20501;-66
2022/01/31 04:37:53;;;;;;;16.27;2.80;;;5.30;99.90;;;;;;5051358;28;20045;-66
2022/01/31 04:40:19;;;;;;;15.98;2.78;;;5.20;99.90;;;;;;5050311;28;20056;-66
2022/01/31 04:42:45;;;;;;;13.02;2.10;;;5.20;99.90;;;;;;5050150;28;20418;-66
2022/01/31 04:45:11;;;;;;;17.48;2.72;;;6.10;99.90;;;;;;5066682;28;20053;-65
2022/01/31 04:47:37;;;;;;;16.38;3.28;;;5.20;99.90;;;;;;5048328;28;20112;-66
2022/01/31 04:50:05;;;;;;;19.45;3.38;;;5.10;99.90;;;;;;5041740;28;20504;-65
2022/01/31 04:52:31;;;;;;;18.80;3.35;;;5.20;99.90;;;;;;5035261;28;20076;-65
2022/01/31 04:54:56;;;;;;;22.85;3.08;;;5.20;99.90;;;;;;5049352;28;20061;-65
2022/01/31 04:57:22;;;;;;;15.70;3.45;;;5.20;99.90;;;;;;5050910;28;20571;-65
2022/01/31 04:59:49;;;;;;;11.45;2.40;;;5.20;99.90;;;;;;5049177;28;20053;-66
2022/01/31 05:02:15;;;;;;;19.77;3.22;;;5.30;99.90;;;;;;5049815;28;20040;-66
2022/01/31 05:04:40;;;;;;;19.35;3.10;;;5.40;99.90;;;;;;5048179;28;20378;-65
2022/01/31 05:07:06;;;;;;;10.68;2.15;;;5.30;99.90;;;;;;5049164;28;20045;-65
2022/01/31 05:09:32;;;;;;;15.15;2.63;;;5.30;99.90;;;;;;5048411;28;20083;-66
2022/01/31 05:11:58;;;;;;;12.75;2.75;;;5.40;99.90;;;;;;5049831;28;20037;-66
2022/01/31 05:14:23;;;;;;;16.70;3.30;;;5.40;99.90;;;;;;5048285;28;20532;-67
2022/01/31 05:16:49;;;;;;;19.05;3.58;;;5.30;99.90;;;;;;5048876;28;20574;-67
2022/01/31 05:19:15;;;;;;;18.48;2.85;;;5.30;99.90;;;;;;5048597;28;20060;-67
2022/01/31 05:21:40;;;;;;;15.25;3.75;;;5.30;99.90;;;;;;5050544;28;20045;-67
2022/01/31 05:24:06;;;;;;;12.82;2.38;;;5.30;99.90;;;;;;5050628;28;20045;-67
2022/01/31 05:26:33;;;;;;;10.60;2.20;;;5.30;99.90;;;;;;5041043;28;20129;-67
2022/01/31 05:28:59;;;;;;;10.63;2.30;;;5.30;99.90;;;;;;5048152;28;20064;-67
2022/01/31 05:31:25;;;;;;;10.38;2.20;;;5.30;99.90;;;;;;5050846;28;20045;-67
2022/01/31 05:33:50;;;;;;;14.93;2.97;;;5.30;99.90;;;;;;5047333;28;20138;-67
2022/01/31 05:36:16;;;;;;;12.15;2.63;;;5.20;99.90;;;;;;5049309;28;20049;-67
2022/01/31 05:38:43;;;;;;;10.20;2.45;;;5.20;99.90;;;;;;5047715;28;20405;-67
2022/01/31 05:41:16;;;;;;;9.07;2.20;;;5.20;99.90;;;;;;5049253;28;20091;-67
2022/01/31 05:43:42;;;;;;;11.23;2.75;;;5.20;99.90;;;;;;5048611;28;20041;-67
2022/01/31 05:46:08;;;;;;;14.27;2.47;;;5.20;99.90;;;;;;5049911;28;20416;-67
2022/01/31 05:48:34;;;;;;;12.15;2.40;;;5.10;99.90;;;;;;5047315;28;20083;-67
2022/01/31 05:51:03;;;;;;;12.88;2.30;;;5.10;99.90;;;;;;5049365;28;20565;-67
2022/01/31 05:53:30;;;;;;;12.77;2.72;;;5.10;99.90;;;;;;5048965;28;20587;-67
2022/01/31 05:55:57;;;;;;;10.65;2.47;;;5.10;99.90;;;;;;5049463;28;20040;-67
2022/01/31 05:58:23;;;;;;;11.15;2.63;;;5.10;99.90;;;;;;5042737;28;20049;-67
2022/01/31 06:00:49;;;;;;;11.25;2.63;;;5.10;99.90;;;;;;5038209;28;20219;-67
2022/01/31 06:03:15;;;;;;;14.10;2.60;;;5.20;99.90;;;;;;5047100;28;20208;-67
2022/01/31 06:05:40;;;;;;;12.23;2.45;;;5.10;99.90;;;;;;5048548;28;20052;-67
2022/01/31 06:08:06;;;;;;;8.27;2.45;;;5.10;99.90;;;;;;5049371;28;20090;-67
2022/01/31 06:10:33;;;;;;;10.07;2.40;;;5.20;99.90;;;;;;5047681;28;20044;-67
2022/01/31 06:12:59;;;;;;;11.40;2.08;;;5.10;99.90;;;;;;5049882;28;20049;-67
2022/01/31 06:15:25;;;;;;;10.38;2.22;;;5.20;99.90;;;;;;5047454;28;20098;-67
2022/01/31 06:17:50;;;;;;;14.38;2.55;;;5.20;99.90;;;;;;5048123;28;20056;-67
2022/01/31 06:20:16;;;;;;;17.77;2.70;;;5.10;99.90;;;;;;5047184;28;20033;-67
2022/01/31 06:22:47;;;;;;;11.43;2.58;;;5.20;99.90;;;;;;5046394;28;20064;-67
2022/01/31 06:25:13;;;;;;;16.92;2.42;;;5.20;99.90;;;;;;5047882;28;20033;-67
2022/01/31 06:27:39;;;;;;;16.63;2.80;;;5.20;99.90;;;;;;5045943;28;20045;-67
2022/01/31 06:30:06;;;;;;;14.80;2.88;;;5.20;99.90;;;;;;5046927;28;20049;-67
2022/01/31 06:32:31;;;;;;;12.57;2.78;;;5.20;99.90;;;;;;5047189;28;20037;-66
2022/01/31 06:34:57;;;;;;;10.15;2.40;;;5.20;99.90;;;;;;5046767;28;20051;-67
2022/01/31 06:37:22;;;;;;;17.42;2.67;;;5.30;99.90;;;;;;5049003;28;20037;-67
2022/01/31 06:39:48;;;;;;;12.15;2.75;;;5.30;99.90;;;;;;5043915;28;20398;-66
2022/01/31 06:42:15;;;;;;;13.57;3.05;;;5.30;99.90;;;;;;5049054;28;20040;-67
2022/01/31 06:44:40;;;;;;;19.90;2.72;;;5.30;99.90;;;;;;5047951;28;20098;-67
2022/01/31 06:47:06;;;;;;;11.13;2.20;;;5.30;99.90;;;;;;5047857;28;20485;-67
2022/01/31 06:49:32;;;;;;;13.88;2.25;;;5.40;99.90;;;;;;5046020;28;20094;-67
2022/01/31 06:51:57;;;;;;;15.80;2.53;;;5.40;99.90;;;;;;5047828;28;20044;-67
2022/01/31 06:54:23;;;;;;;10.65;2.42;;;5.40;99.90;;;;;;5046271;28;20041;-69
2022/01/31 06:56:49;;;;;;;15.20;2.47;;;5.40;99.90;;;;;;5046103;28;20052;-67
2022/01/31 06:59:14;;;;;;;10.38;2.28;;;5.40;99.90;;;;;;5045205;28;20064;-66
2022/01/31 07:01:40;;;;;;;18.17;3.10;;;5.40;99.90;;;;;;5045946;28;20076;-66
2022/01/31 07:04:06;;;;;;;10.52;2.40;;;5.40;99.90;;;;;;5045395;28;20029;-66
2022/01/31 07:06:31;;;;;;;12.25;2.85;;;5.40;99.90;;;;;;5046698;28;20041;-66
2022/01/31 07:08:59;;;;;;;15.68;3.38;;;5.40;99.90;;;;;;5046927;28;20049;-65
2022/01/31 07:11:28;;;;;;;10.02;2.00;;;5.40;99.90;;;;;;5049123;28;20041;-66
2022/01/31 07:14:03;;;;;;;12.68;2.60;;;5.40;99.90;;;;;;5047560;28;20102;-66
2022/01/31 07:16:28;;;;;;;7.70;2.35;;;5.40;99.90;;;;;;5047162;28;20052;-67
2022/01/31 07:19:02;;;;;;;13.77;2.75;;;5.40;99.90;;;;;;5044453;28;20056;-67
2022/01/31 07:21:34;;;;;;;13.98;2.40;;;5.40;99.90;;;;;;5030162;28;20042;-66
2022/01/31 07:26:46;;;;;;;13.98;2.45;;;5.50;99.90;;;;;;5051521;28;20064;-67
2022/01/31 07:29:13;;;;;;;12.98;2.75;;;5.50;99.90;;;;;;5044405;28;20099;-67
2022/01/31 07:31:40;;;;;;;15.32;2.45;;;5.50;99.90;;;;;;5046396;28;20073;-67
2022/01/31 07:34:07;;;;;;;14.27;2.72;;;5.50;99.90;;;;;;5045953;28;20063;-66
2022/01/31 07:36:33;;;;;;;12.57;2.28;;;5.50;99.90;;;;;;5043046;28;20037;-66
2022/01/31 07:38:59;;;;;;;11.07;2.63;;;5.50;99.90;;;;;;5046882;28;20428;-67
2022/01/31 07:41:24;;;;;;;12.32;2.72;;;5.50;99.90;;;;;;5047036;28;20041;-66
2022/01/31 07:43:50;;;;;;;9.38;2.40;;;6.80;99.90;;;;;;5046863;28;20041;-68
2022/01/31 07:46:16;;;;;;;10.43;2.05;;;5.50;99.90;;;;;;5048588;28;20518;-68
2022/01/31 07:48:42;;;;;;;13.52;2.72;;;5.50;99.90;;;;;;5042034;28;20505;-68
2022/01/31 07:51:09;;;;;;;14.32;2.45;;;6.80;99.90;;;;;;5048294;28;20041;-68
2022/01/31 07:53:37;;;;;;;14.18;2.20;;;5.70;99.90;;;;;;5045483;28;20044;-68
2022/01/31 07:56:07;;;;;;;15.20;3.03;;;5.70;99.90;;;;;;5047233;28;20044;-66
2022/01/31 07:58:33;;;;;;;11.07;2.33;;;5.60;99.90;;;;;;5045029;28;20120;-66
2022/01/31 08:00:59;;;;;;;10.32;2.60;;;5.60;99.90;;;;;;5048168;28;20055;-66
2022/01/31 08:03:25;;;;;;;14.77;2.72;;;5.50;99.90;;;;;;5045524;28;20049;-67
2022/01/31 08:05:51;;;;;;;12.50;3.10;;;5.50;99.90;;;;;;5049657;28;20060;-66
2022/01/31 08:08:16;;;;;;;13.68;2.83;;;5.60;99.90;;;;;;5050707;28;20049;-66
2022/01/31 08:10:43;;;;;;;12.32;3.05;;;5.60;99.90;;;;;;5049715;28;20045;-66
2022/01/31 08:13:09;;;;;;;10.88;1.98;;;5.60;99.90;;;;;;5049022;28;20049;-68
2022/01/31 08:15:46;;;;;;;9.63;1.92;;;5.70;99.90;;;;;;5049311;28;20052;-66
2022/01/31 08:18:12;;;;;;;10.65;2.22;;;5.70;99.90;;;;;;5063447;28;20061;-67
2022/01/31 08:20:38;;;;;;;11.18;2.30;;;5.80;99.90;;;;;;5050384;28;20053;-66
2022/01/31 08:23:04;;;;;;;14.40;2.83;;;6.00;99.90;;;;;;5051714;28;20064;-67
2022/01/31 08:25:35;;;;;;;8.85;2.72;;;6.10;99.90;;;;;;5048647;28;20085;-67
2022/01/31 08:28:06;;;;;;;10.48;2.10;;;6.30;99.90;;;;;;5050406;28;20052;-67
2022/01/31 08:30:41;;;;;;;9.73;2.67;;;6.50;99.90;;;;;;5050278;28;20044;-66
2022/01/31 08:33:14;;;;;;;13.23;2.65;;;6.60;99.90;;;;;;5050458;28;20407;-67
2022/01/31 08:35:50;;;;;;;9.38;2.40;;;6.60;99.90;;;;;;5052958;28;20052;-67
2022/01/31 08:38:18;;;;;;;6.60;1.90;;;6.60;99.90;;;;;;5047560;28;20445;-67
2022/01/31 08:40:44;;;;;;;10.57;2.47;;;6.50;99.90;;;;;;5039402;28;20041;-66
2022/01/31 08:43:10;;;;;;;13.02;2.53;;;6.40;99.90;;;;;;5050262;28;20099;-66
2022/01/31 08:45:36;;;;;;;12.32;2.55;;;6.50;99.90;;;;;;5048746;28;20044;-66
2022/01/31 08:48:05;;;;;;;13.43;2.42;;;6.60;99.90;;;;;;5049955;28;20385;-66
2022/01/31 08:50:31;;;;;;;12.95;2.83;;;6.60;99.90;;;;;;5049723;28;20451;-66
2022/01/31 08:52:57;;;;;;;8.20;2.08;;;6.70;99.90;;;;;;5049004;28;20144;-67
2022/01/31 08:55:23;;;;;;;10.88;2.13;;;6.70;99.90;;;;;;5034228;28;20109;-66
2022/01/31 08:57:55;;;;;;;13.82;2.22;;;6.70;99.90;;;;;;5035589;28;20151;-66
2022/01/31 09:00:22;;;;;;;13.70;2.47;;;6.70;99.90;;;;;;5041908;28;20037;-66
2022/01/31 09:03:40;;;;;;;10.52;2.17;;;6.70;99.90;;;;;;5032759;28;20460;-66
2022/01/31 09:05:34;;;;;;;10.07;2.22;;;6.70;99.90;;;;;;5043071;28;20412;-66
2022/01/31 09:07:59;;;;;;;12.55;2.58;;;6.70;99.90;;;;;;5046245;28;20041;-65
2022/01/31 09:10:25;;;;;;;10.32;2.67;;;7.60;99.90;;;;;;5046203;28;20343;-65
2022/01/31 09:12:50;;;;;;;15.93;3.45;;;9.80;99.90;;;;;;5046997;28;20098;-67
2022/01/31 09:15:16;;;;;;;12.60;2.10;;;11.00;99.90;;;;;;5050597;28;20045;-66
2022/01/31 09:17:42;;;;;;;9.98;2.40;;;10.70;99.90;;;;;;5048428;28;20056;-67
2022/01/31 09:20:08;;;;;;;6.95;1.80;;;10.30;99.90;;;;;;5046880;28;20056;-66
2022/01/31 09:22:34;;;;;;;12.10;2.28;;;9.70;99.90;;;;;;5050196;28;20041;-67
2022/01/31 09:25:00;;;;;;;8.75;2.53;;;9.30;99.90;;;;;;5050128;28;20480;-66
2022/01/31 09:27:27;;;;;;;8.55;2.00;;;9.10;99.90;;;;;;5052351;28;20033;-68
2022/01/31 09:29:53;;;;;;;9.10;1.90;;;10.30;99.90;;;;;;5050616;28;20413;-67
2022/01/31 09:32:22;;;;;;;8.55;1.98;;;11.40;99.90;;;;;;5065180;28;20047;-67
2022/01/31 09:34:49;;;;;;;8.35;2.45;;;13.20;99.90;;;;;;5046434;28;20446;-67
2022/01/31 09:37:14;;;;;;;8.82;1.98;;;14.20;99.90;;;;;;5049179;28;20048;-67
2022/01/31 09:39:42;;;;;;;6.95;1.67;;;15.50;99.90;;;;;;5048958;28;20044;-67
2022/01/31 09:42:12;;;;;;;8.27;1.63;;;16.70;99.90;;;;;;5049830;28;20045;-67
2022/01/31 09:45:04;;;;;;;5.82;1.70;;;17.00;99.90;;;;;;5048185;28;20053;-68
2022/01/31 09:50:13;;;;;;;6.18;1.77;;;20.10;99.90;;;;;;5047464;28;20041;-67
2022/01/31 09:52:39;;;;;;;10.75;2.08;;;20.10;98.90;;;;;;5050149;28;20037;-67
2022/01/31 09:55:06;;;;;;;4.85;1.65;;;20.20;97.80;;;;;;5048556;28;20044;-67
2022/01/31 09:57:32;;;;;;;8.30;2.03;;;19.40;98.80;;;;;;5047763;28;20420;-67
2022/01/31 09:59:58;;;;;;;9.32;2.00;;;20.00;99.60;;;;;;5031823;28;20049;-67
2022/01/31 10:02:23;;;;;;;6.90;1.92;;;20.30;98.90;;;;;;5036125;28;20047;-67
2022/01/31 10:04:49;;;;;;;7.43;1.83;;;21.30;96.70;;;;;;5027801;28;20634;-67
2022/01/31 10:07:17;;;;;;;6.53;1.90;;;22.20;93.70;;;;;;5028779;28;20120;-68
2022/01/31 10:09:46;;;;;;;6.65;1.80;;;22.90;88.50;;;;;;5028554;28;20450;-67
2022/01/31 10:16:24;;;;;;;8.88;2.13;;;23.70;69.20;;;;;;5029795;28;20045;-68
2022/01/31 10:18:00;;;;;;;8.55;2.10;;;22.40;71.70;;;;;;5049479;28;20057;-67
2022/01/31 10:20:29;;;;;;;9.50;2.10;;;22.50;72.20;;;;;;5045976;28;20045;-68
2022/01/31 10:22:55;;;;;;;10.48;1.98;;;22.30;71.90;;;;;;5047375;28;20044;-67
2022/01/31 10:25:23;;;;;;;11.63;2.30;;;21.00;84.60;;;;;;5049837;28;20045;-68
2022/01/31 10:27:51;;;;;;;9.05;2.30;;;21.20;83.70;;;;;;5048368;28;20075;-67
2022/01/31 10:30:24;;;;;;;11.27;2.47;;;19.60;95.60;;;;;;5047634;28;20044;-68
2022/01/31 10:32:51;;;;;;;14.63;2.42;;;18.60;96.70;;;;;;5047276;28;20045;-67
2022/01/31 10:35:18;;;;;;;13.32;2.70;;;17.50;97.00;;;;;;5046761;28;20041;-67
2022/01/31 10:37:45;;;;;;;12.55;2.47;;;16.20;99.90;;;;;;5048491;28;20055;-67
2022/01/31 10:46:06;;;;;;;11.43;2.78;;;13.70;99.90;;;;;;5048489;28;20048;-72
2022/01/31 10:52:01;;;;;;;11.40;2.47;;;16.00;99.90;;;;;;5028665;28;20143;-70
2022/01/31 10:56:55;;;;;;;12.65;2.80;;;19.80;94.60;;;;;;5047854;28;20087;-68
2022/01/31 10:59:32;;;;;;;9.57;2.50;;;21.00;83.80;;;;;;5033403;28;20065;-69
2022/01/31 11:01:59;;;;;;;11.15;2.50;;;22.10;89.30;;;;;;5028737;28;20449;-68
2022/01/31 11:04:31;;;;;;;8.45;2.35;;;23.00;70.40;;;;;;5024001;28;20124;-70
2022/01/31 11:06:59;;;;;;;8.63;2.20;;;23.60;64.80;;;;;;5028107;28;20056;-69
2022/01/31 11:09:25;;;;;;;9.98;2.58;;;23.90;58.90;;;;;;5026060;28;20162;-70
2022/01/31 11:11:51;;;;;;;8.98;2.40;;;23.70;60.40;;;;;;5028020;28;20149;-67
2022/01/31 11:14:20;;;;;;;10.82;2.40;;;23.80;62.40;;;;;;5028357;28;20041;-68
2022/01/31 11:16:47;;;;;;;10.63;2.70;;;24.30;60.20;;;;;;5029537;28;20060;-68
2022/01/31 11:19:17;;;;;;;9.43;2.33;;;25.30;56.50;;;;;;5025203;28;20041;-68
2022/01/31 11:21:46;;;;;;;12.38;2.70;;;26.00;53.70;;;;;;5026976;28;20045;-68
2022/01/31 11:24:22;;;;;;;10.15;2.47;;;26.20;52.70;;;;;;5028966;28;20501;-68
2022/01/31 11:26:50;;;;;;;10.68;2.70;;;26.00;51.90;;;;;;5047630;28;20409;-68
2022/01/31 11:29:18;;;;;;;11.02;2.78;;;26.50;52.00;;;;;;5031521;28;20463;-68
2022/01/31 11:31:45;;;;;;;10.82;2.90;;;26.70;51.50;;;;;;5027381;28;20065;-68
2022/01/31 11:34:11;;;;;;;12.05;3.05;;;27.10;51.60;;;;;;5007674;28;20132;-69
2022/01/31 11:36:39;;;;;;;15.27;3.00;;;27.60;50.40;;;;;;5045753;28;20194;-69
2022/01/31 11:39:13;;;;;;;11.38;2.80;;;27.90;49.10;;;;;;5028715;28;20413;-70
2022/01/31 11:41:52;;;;;;;9.80;2.70;;;26.50;49.50;;;;;;5031916;28;20145;-69
2022/01/31 11:44:46;;;;;;;12.68;2.85;;;24.80;51.20;;;;;;5032604;28;20042;-69
2022/01/31 11:47:12;;;;;;;11.38;2.47;;;22.50;53.60;;;;;;5030472;28;20054;-70
2022/01/31 11:49:52;;;;;;;11.80;2.58;;;20.70;59.40;;;;;;5029986;28;20085;-68
2022/01/31 11:52:19;;;;;;;14.15;3.10;;;19.20;73.40;;;;;;5031085;28;20053;-68
2022/01/31 11:54:51;;;;;;;16.15;2.97;;;18.30;90.80;;;;;;5030899;28;20038;-68
2022/01/31 11:57:26;;;;;;;14.95;3.00;;;18.40;91.40;;;;;;5047652;28;20061;-67
2022/01/31 12:00:03;;;;;;;14.82;3.13;;;18.40;93.70;;;;;;5029070;28;20049;-69
2022/01/31 12:02:31;;;;;;;17.05;3.40;;;16.80;97.00;;;;;;5031574;28;20115;-68
2022/01/31 12:05:05;;;;;;;13.95;3.05;;;16.00;99.10;;;;;;5030584;28;20046;-68
2022/01/31 12:07:32;;;;;;;14.52;3.10;;;15.30;99.90;;;;;;5028751;28;20042;-68
2022/01/31 12:10:00;;;;;;;19.90;3.33;;;14.60;99.90;;;;;;5033711;28;20049;-69
2022/01/31 12:12:44;;;;;;;15.82;3.10;;;13.80;99.90;;;;;;5033362;28;20053;-70
2022/01/31 12:18:32;;;;;;;15.57;3.20;;;13.70;99.90;;;;;;5030886;28;20053;-70
2022/01/31 12:22:07;;;;;;;19.80;3.38;;;14.00;99.90;;;;;;5029314;28;20049;-69
2022/01/31 12:24:09;;;;;;;14.05;2.60;;;14.20;99.90;;;;;;5026167;28;20050;-67
2022/01/31 12:26:39;;;;;;;19.25;3.22;;;14.40;99.90;;;;;;5029690;28;20059;-68
2022/01/31 12:29:10;;;;;;;15.70;3.22;;;14.40;99.90;;;;;;5028619;28;20049;-69
2022/01/31 12:31:43;;;;;;;17.77;3.80;;;14.30;99.90;;;;;;5031247;28;20073;-69
2022/01/31 12:34:17;;;;;;;20.45;2.90;;;14.90;99.90;;;;;;5028735;28;20053;-68
2022/01/31 12:36:42;;;;;;;17.23;3.78;;;15.20;99.90;;;;;;5030153;28;20056;-68
2022/01/31 12:39:43;;;;;;;18.30;3.30;;;15.00;99.90;;;;;;5030399;28;20045;-68
2022/01/31 12:45:13;;;;;;;19.02;3.80;;;13.90;99.90;;;;;;5031269;28;20429;-68
2022/01/31 12:48:08;;;;;;;13.88;2.97;;;13.60;99.90;;;;;;5029824;28;20041;-67
2022/01/31 12:50:58;;;;;;;17.15;2.72;;;13.30;99.90;;;;;;5028829;28;20057;-67
2022/01/31 12:53:29;;;;;;;18.45;3.22;;;13.00;99.90;;;;;;5029891;28;20057;-69
2022/01/31 12:56:20;;;;;;;17.30;3.15;;;12.50;99.90;;;;;;5030842;28;20049;-69
2022/01/31 12:58:53;;;;;;;19.73;3.40;;;12.30;99.90;;;;;;5035860;28;20129;-69
2022/01/31 13:01:23;;;;;;;14.27;2.80;;;12.00;99.90;;;;;;5049759;28;20496;-67
2022/01/31 13:03:55;;;;;;;16.35;3.30;;;11.80;99.90;;;;;;5047106;28;20121;-68
2022/01/31 13:06:30;;;;;;;19.77;3.28;;;11.50;99.90;;;;;;5048940;28;20128;-68
2022/01/31 13:08:58;;;;;;;17.17;3.05;;;11.30;99.90;;;;;;5048774;28;20145;-68
2022/01/31 13:11:25;;;;;;;16.95;2.78;;;11.10;99.90;;;;;;5048089;28;20107;-68
2022/01/31 13:13:51;;;;;;;15.25;3.20;;;10.70;99.90;;;;;;5048188;28;20041;-67
2022/01/31 13:16:17;;;;;;;19.40;3.28;;;10.50;99.90;;;;;;5050569;28;20448;-68